Time;durP1;ratioP1;P1;durP2;ratioP2;P2;SDS_P1;SDS_P2;PMS_P1;PMS_P2;Temp;Humidity;BMP_temperature;BMP_pressure;BME280_temperature;BME280_humidity;BME280_pressure;Samples;Min_cycle;Max_cycle;Signal;HPM_P1;HPM_P2
2022/08/02 00:02:10;;;;;;;1.95;1.15;;;21.40;70.50;;;;;;4878843;29;20083;-74
2022/08/02 00:04:39;;;;;;;1.88;1.08;;;21.30;70.70;;;;;;4875860;29;20041;-75
2022/08/02 00:07:06;;;;;;;2.17;1.35;;;21.30;70.80;;;;;;4869498;29;20048;-76
2022/08/02 00:09:33;;;;;;;4.70;1.13;;;21.30;70.80;;;;;;4873204;29;20053;-73
2022/08/02 00:12:00;;;;;;;2.25;1.13;;;21.30;70.90;;;;;;4870953;29;20044;-76
2022/08/02 00:14:28;;;;;;;7.60;1.40;;;21.30;71.00;;;;;;4874467;29;20128;-75
2022/08/02 00:16:56;;;;;;;2.22;1.25;;;21.20;71.10;;;;;;4874003;29;20061;-76
2022/08/02 00:19:23;;;;;;;2.17;1.00;;;21.20;71.10;;;;;;4876381;29;20053;-74
2022/08/02 00:21:51;;;;;;;1.77;1.08;;;21.20;71.10;;;;;;4872884;29;20049;-76
2022/08/02 00:24:18;;;;;;;2.17;1.17;;;21.20;71.00;;;;;;4868813;29;20055;-76
2022/08/02 00:26:45;;;;;;;3.08;1.45;;;21.20;71.00;;;;;;4875714;29;20055;-77
2022/08/02 00:29:13;;;;;;;2.80;1.70;;;21.20;71.00;;;;;;4879318;29;20105;-76
2022/08/02 00:31:40;;;;;;;4.25;2.08;;;21.20;71.00;;;;;;4878630;29;20053;-77
2022/08/02 00:34:07;;;;;;;5.03;2.03;;;21.20;71.00;;;;;;4876929;29;20036;-76
2022/08/02 00:36:34;;;;;;;6.38;2.97;;;21.20;71.10;;;;;;4878863;29;20045;-77
2022/08/02 00:39:02;;;;;;;9.05;4.38;;;21.20;71.10;;;;;;4877722;29;20556;-77
2022/08/02 00:41:29;;;;;;;7.93;3.35;;;21.20;71.10;;;;;;4871342;29;20438;-76
2022/08/02 00:43:57;;;;;;;8.25;3.53;;;21.10;71.10;;;;;;4878472;29;20415;-74
2022/08/02 00:46:24;;;;;;;7.80;3.20;;;21.10;71.20;;;;;;4872360;29;20049;-75
2022/08/02 00:48:54;;;;;;;5.60;2.47;;;21.10;71.40;;;;;;4870685;29;20137;-75
2022/08/02 00:51:21;;;;;;;4.70;2.38;;;21.00;71.70;;;;;;4878510;29;20045;-76
2022/08/02 00:53:48;;;;;;;3.35;1.80;;;21.10;71.70;;;;;;4874417;29;20058;-74
2022/08/02 00:56:18;;;;;;;2.95;1.58;;;21.00;71.80;;;;;;4868214;29;20057;-75
2022/08/02 00:58:45;;;;;;;3.50;1.75;;;21.00;71.90;;;;;;4875897;29;20072;-76
2022/08/02 01:01:12;;;;;;;3.63;1.63;;;20.90;72.00;;;;;;4873295;29;20049;-74
2022/08/02 01:03:39;;;;;;;2.08;1.20;;;20.90;72.20;;;;;;4877017;29;20059;-76
2022/08/02 01:06:07;;;;;;;3.10;1.52;;;20.90;72.10;;;;;;4876764;29;20056;-76
2022/08/02 01:08:34;;;;;;;2.35;1.23;;;20.80;72.20;;;;;;4875156;29;20057;-76
2022/08/02 01:11:01;;;;;;;1.80;1.15;;;20.80;72.30;;;;;;4870941;29;20093;-76
2022/08/02 01:13:30;;;;;;;1.88;0.98;;;20.80;72.50;;;;;;4872963;29;20057;-75
2022/08/02 01:16:03;;;;;;;2.25;1.20;;;20.80;72.50;;;;;;4874700;29;20041;-74
2022/08/02 01:18:38;;;;;;;2.28;1.25;;;20.80;72.60;;;;;;4870942;29;20563;-73
2022/08/02 01:21:33;;;;;;;3.10;1.50;;;20.60;72.60;;;;;;4875442;29;20133;-73
2022/08/02 01:24:44;;;;;;;2.38;1.35;;;20.60;72.70;;;;;;4871782;29;20055;-71
2022/08/02 01:27:22;;;;;;;2.30;1.27;;;20.60;72.90;;;;;;4830854;29;20145;-75
2022/08/02 01:29:56;;;;;;;4.43;1.30;;;20.60;72.90;;;;;;4874089;29;20496;-74
2022/08/02 01:32:29;;;;;;;3.17;1.20;;;20.60;72.90;;;;;;4866501;29;20042;-74
2022/08/02 01:35:01;;;;;;;1.92;1.00;;;20.60;73.10;;;;;;4872400;29;20057;-76
2022/08/02 01:37:35;;;;;;;6.38;1.40;;;20.60;73.10;;;;;;4869875;29;20069;-75
2022/08/02 01:40:07;;;;;;;2.92;1.05;;;20.50;73.20;;;;;;4871434;29;20048;-72
2022/08/02 01:42:36;;;;;;;2.75;1.30;;;20.50;73.20;;;;;;4870961;29;20063;-73
2022/08/02 01:45:07;;;;;;;3.55;1.42;;;20.60;73.20;;;;;;4872400;29;20051;-75
2022/08/02 01:47:39;;;;;;;2.78;1.83;;;20.50;73.30;;;;;;4867553;29;20041;-73
2022/08/02 01:50:08;;;;;;;5.95;1.67;;;20.60;73.60;;;;;;4873001;29;20045;-77
2022/08/02 01:52:41;;;;;;;3.95;1.92;;;20.60;73.40;;;;;;4870689;29;20079;-78
2022/08/02 01:55:12;;;;;;;3.78;1.65;;;20.70;73.20;;;;;;4877402;29;20041;-75
2022/08/02 01:57:45;;;;;;;7.10;1.80;;;20.80;73.00;;;;;;4870765;29;20057;-75
2022/08/02 02:00:15;;;;;;;4.00;1.70;;;20.80;72.90;;;;;;4874686;29;20057;-74
2022/08/02 02:02:44;;;;;;;4.30;1.75;;;20.80;72.90;;;;;;4879515;29;20079;-76
2022/08/02 02:05:14;;;;;;;3.83;1.60;;;20.80;73.00;;;;;;4873494;29;20061;-77
2022/08/02 02:07:42;;;;;;;2.33;1.38;;;20.80;73.10;;;;;;4877089;29;20817;-77
2022/08/02 02:10:13;;;;;;;3.20;1.42;;;20.80;72.90;;;;;;4877978;29;20045;-77
2022/08/02 02:12:44;;;;;;;2.95;1.63;;;20.80;72.90;;;;;;4871368;29;20052;-76
2022/08/02 02:15:14;;;;;;;2.47;1.50;;;20.80;72.90;;;;;;4871377;29;20141;-77
2022/08/02 02:17:44;;;;;;;2.22;1.33;;;20.80;72.70;;;;;;4877961;29;20496;-75
2022/08/02 02:20:15;;;;;;;2.80;1.38;;;20.90;72.50;;;;;;4878982;29;20049;-76
2022/08/02 02:22:43;;;;;;;2.60;1.20;;;20.80;72.70;;;;;;4866829;29;20037;-75
2022/08/02 02:25:11;;;;;;;3.33;1.58;;;20.80;72.70;;;;;;4878152;29;20400;-76
2022/08/02 02:27:43;;;;;;;2.88;1.40;;;20.80;72.80;;;;;;4879637;29;20052;-77
2022/08/02 02:30:11;;;;;;;2.55;1.35;;;20.70;72.70;;;;;;4875227;29;20061;-77
2022/08/02 02:32:41;;;;;;;2.70;1.33;;;20.70;72.70;;;;;;4871659;29;20067;-76
2022/08/02 02:35:11;;;;;;;3.08;1.30;;;20.70;72.60;;;;;;4880550;29;20105;-78
2022/08/02 02:37:38;;;;;;;2.67;1.30;;;20.70;72.60;;;;;;4874444;29;20109;-77
2022/08/02 02:40:08;;;;;;;2.28;1.08;;;20.60;72.70;;;;;;4871168;29;20049;-77
2022/08/02 02:42:35;;;;;;;;;;;20.50;72.90;;;;;;4875981;29;20491;-76
2022/08/02 02:45:04;;;;;;;2.22;1.48;;;20.50;73.00;;;;;;4876074;29;19924;-75
2022/08/02 02:47:34;;;;;;;2.75;1.20;;;20.40;73.00;;;;;;4868729;29;20053;-75
2022/08/02 02:50:02;;;;;;;2.55;1.00;;;20.40;73.00;;;;;;4874738;29;20059;-75
2022/08/02 02:52:30;;;;;;;1.98;1.13;;;20.40;73.10;;;;;;4868776;29;20413;-76
2022/08/02 02:54:58;;;;;;;2.70;1.10;;;20.30;73.20;;;;;;4875789;29;20495;-78
2022/08/02 02:57:25;;;;;;;3.22;1.42;;;20.30;73.10;;;;;;4877025;29;20060;-76
2022/08/02 02:59:53;;;;;;;2.10;1.30;;;20.30;73.10;;;;;;4872559;29;20042;-77
2022/08/02 03:02:20;;;;;;;1.95;1.00;;;20.30;73.20;;;;;;4871040;29;20552;-77
2022/08/02 03:04:48;;;;;;;1.85;1.08;;;20.30;73.20;;;;;;4873499;29;20053;-77
2022/08/02 03:07:17;;;;;;;1.90;1.20;;;20.30;73.10;;;;;;4870994;29;20068;-77
2022/08/02 03:09:44;;;;;;;1.40;0.73;;;20.30;73.10;;;;;;4870518;29;20555;-76
2022/08/02 03:12:12;;;;;;;4.00;1.48;;;20.30;73.10;;;;;;4869579;29;20527;-75
2022/08/02 03:14:42;;;;;;;4.43;0.98;;;20.30;73.10;;;;;;4876027;29;20105;-74
2022/08/02 03:17:09;;;;;;;1.13;0.68;;;20.30;73.10;;;;;;4867925;29;20399;-75
2022/08/02 03:19:37;;;;;;;1.92;1.23;;;20.30;73.20;;;;;;4877889;29;20045;-74
2022/08/02 03:22:04;;;;;;;2.70;1.00;;;20.30;73.10;;;;;;4874078;29;20045;-74
2022/08/02 03:24:32;;;;;;;1.92;1.00;;;20.30;73.10;;;;;;4858204;29;20388;-75
2022/08/02 03:26:59;;;;;;;1.90;0.98;;;20.30;73.00;;;;;;4870682;29;20503;-75
2022/08/02 03:29:26;;;;;;;2.13;1.10;;;20.30;73.00;;;;;;4871523;29;20059;-75
2022/08/02 03:31:54;;;;;;;2.85;1.10;;;20.30;73.00;;;;;;4870197;29;20140;-75
2022/08/02 03:34:21;;;;;;;1.77;1.00;;;20.20;73.20;;;;;;4875863;29;20060;-76
2022/08/02 03:36:51;;;;;;;2.55;1.08;;;20.20;73.40;;;;;;4870982;29;20081;-75
2022/08/02 03:39:19;;;;;;;;;;;20.20;73.40;;;;;;4874950;29;20045;-75
2022/08/02 03:41:49;;;;;;;2.05;1.20;;;20.10;73.60;;;;;;4872264;29;19930;-74
2022/08/02 03:44:17;;;;;;;3.20;0.95;;;20.10;73.70;;;;;;4872816;29;20052;-75
2022/08/02 03:46:45;;;;;;;4.93;1.23;;;20.00;74.00;;;;;;4878717;29;20167;-75
2022/08/02 03:49:17;;;;;;;4.05;1.05;;;19.90;74.00;;;;;;4877101;29;20045;-74
2022/08/02 03:51:45;;;;;;;3.00;1.27;;;20.00;74.00;;;;;;4864908;29;20045;-72
2022/08/02 03:54:13;;;;;;;2.85;1.20;;;19.90;74.10;;;;;;4871477;29;20092;-74
2022/08/02 03:56:41;;;;;;;3.00;1.20;;;19.90;74.10;;;;;;4873719;29;20396;-72
2022/08/02 03:59:11;;;;;;;2.65;1.50;;;19.90;74.10;;;;;;4872232;29;20129;-74
2022/08/02 04:01:39;;;;;;;3.58;1.45;;;19.80;74.20;;;;;;4869698;29;20092;-74
2022/08/02 04:04:07;;;;;;;2.20;1.08;;;19.80;74.20;;;;;;4870118;29;20072;-74
2022/08/02 04:06:34;;;;;;;2.55;1.20;;;19.70;74.30;;;;;;4873345;29;20051;-74
2022/08/02 04:09:01;;;;;;;6.35;1.65;;;19.70;74.20;;;;;;4872242;29;20083;-74
2022/08/02 04:11:32;;;;;;;3.28;1.70;;;19.70;74.20;;;;;;4866492;29;20052;-74
2022/08/02 04:14:01;;;;;;;3.20;1.65;;;19.70;74.30;;;;;;4870664;29;20061;-77
2022/08/02 04:16:34;;;;;;;;;;;19.70;74.30;;;;;;4872420;29;20530;-75
2022/08/02 04:19:03;;;;;;;2.75;1.10;;;19.60;74.30;;;;;;4870511;29;19959;-74
2022/08/02 04:21:35;;;;;;;3.58;1.40;;;19.60;74.40;;;;;;4877085;29;20408;-75
2022/08/02 04:24:03;;;;;;;3.03;1.10;;;19.70;74.40;;;;;;4872748;29;20136;-75
2022/08/02 04:26:32;;;;;;;3.90;1.48;;;19.70;74.20;;;;;;4878068;29;20086;-76
2022/08/02 04:29:00;;;;;;;1.80;1.10;;;19.70;74.00;;;;;;4873842;29;20131;-76
2022/08/02 04:31:29;;;;;;;2.78;1.38;;;19.80;74.00;;;;;;4875685;29;20060;-75
2022/08/02 04:33:58;;;;;;;4.38;1.13;;;19.80;74.00;;;;;;4877419;29;20140;-76
2022/08/02 04:36:25;;;;;;;3.20;1.02;;;19.80;74.00;;;;;;4866639;29;20104;-73
2022/08/02 04:38:53;;;;;;;3.97;1.25;;;19.80;74.10;;;;;;4858328;29;20110;-75
2022/08/02 04:41:20;;;;;;;1.65;1.00;;;19.80;74.10;;;;;;4872670;29;20488;-76
2022/08/02 04:43:48;;;;;;;1.52;0.98;;;19.80;74.10;;;;;;4875115;29;20143;-74
2022/08/02 04:46:15;;;;;;;5.18;1.40;;;19.80;74.10;;;;;;4874045;29;20101;-75
2022/08/02 04:48:42;;;;;;;2.88;1.42;;;19.80;74.20;;;;;;4870731;29;20097;-71
2022/08/02 04:51:11;;;;;;;2.60;1.40;;;19.70;74.40;;;;;;4870037;29;20594;-75
2022/08/02 04:53:38;;;;;;;2.30;1.43;;;19.60;74.60;;;;;;4870838;29;20124;-75
2022/08/02 04:56:06;;;;;;;2.17;0.90;;;19.70;74.50;;;;;;4866845;29;20053;-73
2022/08/02 04:58:33;;;;;;;2.28;1.23;;;19.70;74.30;;;;;;4873446;29;20105;-76
2022/08/02 05:01:00;;;;;;;2.60;1.33;;;19.70;74.30;;;;;;4863272;29;20065;-73
2022/08/02 05:03:30;;;;;;;2.88;1.27;;;19.70;74.10;;;;;;4868368;29;20048;-72
2022/08/02 05:05:57;;;;;;;5.57;1.40;;;19.60;74.20;;;;;;4869847;29;20057;-73
2022/08/02 05:08:25;;;;;;;2.78;1.38;;;19.60;74.30;;;;;;4863903;29;20045;-73
2022/08/02 05:10:52;;;;;;;5.18;1.77;;;19.60;74.60;;;;;;4866474;29;20050;-73
2022/08/02 05:13:20;;;;;;;2.30;1.25;;;19.50;74.80;;;;;;4873889;29;20052;-72
2022/08/02 05:15:49;;;;;;;1.42;0.98;;;19.50;75.00;;;;;;4865628;29;20052;-71
2022/08/02 05:18:16;;;;;;;2.35;1.48;;;19.50;75.00;;;;;;4869437;29;20057;-72
2022/08/02 05:20:43;;;;;;;2.35;1.20;;;19.50;75.00;;;;;;4869774;29;20076;-71
2022/08/02 05:23:10;;;;;;;2.05;1.30;;;19.60;75.00;;;;;;4871228;29;20041;-73
2022/08/02 05:25:39;;;;;;;2.67;1.15;;;19.60;75.20;;;;;;4868181;29;20472;-75
2022/08/02 05:28:06;;;;;;;3.13;1.13;;;19.60;74.80;;;;;;4872495;29;20075;-74
2022/08/02 05:30:33;;;;;;;2.10;1.23;;;19.60;74.80;;;;;;4867561;29;20140;-72
2022/08/02 05:33:00;;;;;;;2.38;1.17;;;19.70;74.80;;;;;;4873597;29;20045;-73
2022/08/02 05:35:28;;;;;;;3.40;1.30;;;19.80;74.40;;;;;;4873658;29;20056;-71
2022/08/02 05:37:55;;;;;;;2.30;1.50;;;19.80;74.20;;;;;;4875290;29;20052;-71
2022/08/02 05:40:22;;;;;;;2.63;1.20;;;19.80;74.60;;;;;;4872599;29;20072;-75
2022/08/02 05:42:50;;;;;;;2.42;1.08;;;19.80;74.70;;;;;;4878841;29;20130;-75
2022/08/02 05:45:17;;;;;;;2.45;1.25;;;19.80;74.70;;;;;;4871860;29;20076;-74
2022/08/02 05:47:44;;;;;;;4.38;1.20;;;19.80;74.50;;;;;;4875314;29;20051;-75
2022/08/02 05:50:11;;;;;;;1.95;1.10;;;19.80;74.90;;;;;;4873541;29;20048;-74
2022/08/02 05:52:45;;;;;;;2.53;1.33;;;19.80;75.00;;;;;;4878561;29;20502;-73
2022/08/02 05:55:17;;;;;;;3.20;1.20;;;19.80;75.00;;;;;;4878089;29;20144;-74
2022/08/02 05:57:53;;;;;;;6.53;1.30;;;19.80;74.90;;;;;;4877358;29;20053;-77
2022/08/02 06:00:21;;;;;;;2.67;1.33;;;19.80;74.90;;;;;;4877846;29;20045;-76
2022/08/02 06:03:06;;;;;;;3.25;1.05;;;19.80;74.90;;;;;;4876118;29;20131;-73
2022/08/02 06:05:35;;;;;;;2.00;1.02;;;19.90;74.90;;;;;;4872586;29;20053;-73
2022/08/02 06:08:07;;;;;;;2.70;1.23;;;19.90;74.90;;;;;;4873272;29;20060;-73
2022/08/02 06:10:36;;;;;;;1.85;1.00;;;19.80;75.10;;;;;;4874424;29;20049;-74
2022/08/02 06:13:09;;;;;;;2.40;1.27;;;19.80;75.20;;;;;;4872261;29;20099;-73
2022/08/02 06:15:37;;;;;;;5.15;1.27;;;19.80;75.10;;;;;;4868305;29;20490;-74
2022/08/02 06:18:05;;;;;;;1.58;0.93;;;19.90;74.90;;;;;;4871010;29;20053;-74
2022/08/02 06:20:35;;;;;;;2.88;1.20;;;19.90;74.80;;;;;;4873875;29;20045;-73
2022/08/02 06:23:04;;;;;;;2.50;1.80;;;19.90;74.90;;;;;;4862252;29;20045;-73
2022/08/02 06:25:33;;;;;;;2.08;1.30;;;20.00;74.70;;;;;;4870143;29;20057;-72
2022/08/02 06:28:01;;;;;;;4.20;1.40;;;20.00;74.60;;;;;;4862661;29;20052;-74
2022/08/02 06:30:31;;;;;;;2.42;1.30;;;20.10;74.80;;;;;;4867633;29;20065;-73
2022/08/02 06:32:59;;;;;;;11.50;1.70;;;20.10;74.40;;;;;;4868516;29;20060;-73
2022/08/02 06:35:33;;;;;;;3.88;1.25;;;20.10;74.80;;;;;;4875235;29;20033;-72
2022/08/02 06:38:01;;;;;;;2.80;1.30;;;20.20;74.80;;;;;;4872629;29;20050;-72
2022/08/02 06:40:32;;;;;;;2.78;1.25;;;20.30;74.40;;;;;;4872607;29;20053;-73
2022/08/02 06:43:11;;;;;;;1.92;1.00;;;20.40;74.00;;;;;;4871611;29;20061;-74
2022/08/02 06:45:40;;;;;;;1.58;1.08;;;20.50;73.90;;;;;;4871927;29;20053;-72
2022/08/02 06:48:09;;;;;;;1.77;1.10;;;20.60;74.10;;;;;;4871436;29;20053;-73
2022/08/02 06:50:37;;;;;;;3.17;1.38;;;20.70;73.90;;;;;;4874013;29;20507;-72
2022/08/02 06:53:05;;;;;;;2.35;1.05;;;20.80;73.80;;;;;;4875079;29;20049;-71
2022/08/02 06:55:32;;;;;;;1.77;1.13;;;21.00;73.60;;;;;;4869916;29;20059;-72
2022/08/02 06:58:00;;;;;;;2.08;1.00;;;21.10;73.30;;;;;;4878361;29;20053;-72
2022/08/02 07:00:27;;;;;;;3.13;1.38;;;21.10;73.20;;;;;;4877723;29;20053;-73
2022/08/02 07:02:56;;;;;;;3.40;1.35;;;21.20;73.20;;;;;;4876837;29;20085;-72
2022/08/02 07:05:23;;;;;;;1.83;1.25;;;21.30;73.20;;;;;;4874465;29;20041;-73
2022/08/02 07:07:51;;;;;;;2.60;1.30;;;21.60;72.90;;;;;;4876776;29;20453;-71
2022/08/02 07:10:18;;;;;;;1.33;0.80;;;21.70;72.70;;;;;;4871689;29;20420;-72
2022/08/02 07:12:45;;;;;;;2.00;1.15;;;21.80;72.50;;;;;;4868260;29;20143;-71
2022/08/02 07:15:12;;;;;;;3.05;1.30;;;21.90;71.80;;;;;;4865078;29;20057;-73
2022/08/02 07:17:40;;;;;;;3.45;1.00;;;22.00;71.30;;;;;;4870816;29;20465;-73
2022/08/02 07:20:09;;;;;;;2.40;0.90;;;22.10;71.60;;;;;;4864349;29;20057;-73
2022/08/02 07:22:36;;;;;;;;;;;22.30;71.40;;;;;;4869478;29;20077;-71
2022/08/02 07:25:05;;;;;;;2.25;1.02;;;22.40;70.80;;;;;;4870426;29;19924;-72
2022/08/02 07:27:33;;;;;;;1.33;0.85;;;22.50;70.10;;;;;;4872670;29;20059;-73
2022/08/02 07:30:00;;;;;;;1.98;1.00;;;22.60;70.10;;;;;;4868332;29;20106;-73
2022/08/02 07:32:30;;;;;;;2.33;0.90;;;22.80;69.60;;;;;;4872922;29;20377;-74
2022/08/02 07:34:58;;;;;;;3.05;1.13;;;22.90;69.00;;;;;;4877896;29;20049;-71
2022/08/02 07:37:28;;;;;;;2.15;0.90;;;23.00;68.60;;;;;;4869628;29;20199;-73
2022/08/02 07:39:56;;;;;;;1.90;0.95;;;23.10;68.50;;;;;;4870823;29;20041;-72
2022/08/02 07:42:23;;;;;;;1.58;0.90;;;23.20;67.90;;;;;;4873928;29;20475;-71
2022/08/02 07:44:51;;;;;;;2.22;1.02;;;23.30;67.60;;;;;;4872252;29;20051;-72
2022/08/02 07:47:18;;;;;;;1.73;0.80;;;23.50;67.40;;;;;;4870853;29;20108;-75
2022/08/02 07:49:45;;;;;;;1.10;0.70;;;23.60;67.20;;;;;;4876969;29;20054;-73
2022/08/02 07:52:13;;;;;;;1.15;0.85;;;23.70;65.80;;;;;;4873935;29;20129;-73
2022/08/02 07:54:41;;;;;;;2.17;0.80;;;23.90;65.10;;;;;;4873684;29;20065;-72
2022/08/02 07:57:08;;;;;;;2.47;0.90;;;24.00;64.70;;;;;;4870891;29;20067;-72
2022/08/02 07:59:35;;;;;;;1.63;0.98;;;24.10;64.80;;;;;;4876953;29;20041;-71
2022/08/02 08:02:03;;;;;;;1.40;0.82;;;24.20;64.20;;;;;;4874479;29;20056;-63
2022/08/02 08:04:30;;;;;;;0.95;0.70;;;24.30;63.50;;;;;;4874251;29;20049;-62
2022/08/02 08:06:58;;;;;;;2.28;0.95;;;24.50;62.30;;;;;;4876604;29;20049;-64
2022/08/02 08:09:25;;;;;;;1.52;1.13;;;24.50;61.90;;;;;;4874542;29;20049;-63
2022/08/02 08:11:53;;;;;;;2.60;0.75;;;24.60;62.30;;;;;;4875397;29;20072;-63
2022/08/02 08:14:20;;;;;;;1.88;0.90;;;24.80;61.70;;;;;;4874283;29;20484;-61
2022/08/02 08:16:47;;;;;;;2.08;0.80;;;25.00;61.30;;;;;;4877349;29;20067;-62
2022/08/02 08:19:15;;;;;;;2.88;1.20;;;25.10;61.30;;;;;;4878464;29;20055;-63
2022/08/02 08:21:43;;;;;;;3.97;0.90;;;25.10;61.00;;;;;;4875358;29;20049;-63
2022/08/02 08:24:10;;;;;;;1.40;0.60;;;25.20;59.70;;;;;;4877517;29;20535;-63
2022/08/02 08:26:38;;;;;;;2.63;0.80;;;25.30;59.00;;;;;;4877200;29;20068;-61
2022/08/02 08:29:07;;;;;;;1.10;0.70;;;25.40;58.90;;;;;;4874648;29;20479;-62
2022/08/02 08:31:34;;;;;;;2.22;0.90;;;25.50;57.70;;;;;;4864977;29;20040;-62
2022/08/02 08:34:01;;;;;;;0.93;0.70;;;25.60;57.40;;;;;;4874687;29;20098;-63
2022/08/02 08:36:29;;;;;;;1.27;0.70;;;25.70;57.50;;;;;;4874021;29;20069;-63
2022/08/02 08:38:56;;;;;;;1.65;0.60;;;25.80;56.90;;;;;;4876878;29;20053;-62
2022/08/02 08:41:23;;;;;;;1.30;0.73;;;26.00;56.90;;;;;;4871944;29;20117;-61
2022/08/02 08:43:52;;;;;;;1.45;0.80;;;26.00;56.80;;;;;;4873571;29;20045;-64
2022/08/02 08:46:26;;;;;;;1.88;0.70;;;26.20;55.20;;;;;;4869768;29;20047;-63
2022/08/02 08:48:56;;;;;;;0.95;0.65;;;26.30;54.20;;;;;;4867690;29;20045;-62
2022/08/02 08:51:25;;;;;;;0.70;0.50;;;26.30;53.50;;;;;;4877334;29;20484;-63
2022/08/02 08:53:54;;;;;;;2.08;0.73;;;26.40;53.30;;;;;;4874199;29;20051;-64
2022/08/02 08:56:21;;;;;;;;;;;26.50;53.20;;;;;;4865530;29;20053;-62
2022/08/02 08:58:48;;;;;;;1.00;0.50;;;26.50;50.50;;;;;;4870103;29;19934;-61
2022/08/02 09:01:16;;;;;;;0.47;0.35;;;26.60;50.90;;;;;;4870975;29;20113;-62
2022/08/02 09:03:45;;;;;;;2.50;0.80;;;26.70;51.10;;;;;;4872454;29;20037;-64
2022/08/02 09:06:12;;;;;;;2.20;0.50;;;26.80;51.50;;;;;;4868478;29;20052;-61
2022/08/02 09:08:39;;;;;;;2.15;0.65;;;26.80;50.60;;;;;;4874094;29;20060;-61
2022/08/02 09:11:14;;;;;;;1.13;0.60;;;27.00;47.70;;;;;;4866551;29;20124;-62
2022/08/02 09:13:50;;;;;;;3.47;0.90;;;27.10;48.20;;;;;;4872237;29;20053;-63
2022/08/02 09:16:28;;;;;;;1.70;0.70;;;27.20;47.00;;;;;;4872361;29;20492;-61
2022/08/02 09:18:56;;;;;;;2.08;0.80;;;27.30;46.20;;;;;;4870053;29;20049;-62
2022/08/02 09:21:24;;;;;;;1.70;0.90;;;27.30;46.30;;;;;;4870263;29;20045;-61
2022/08/02 09:23:52;;;;;;;2.20;1.00;;;27.40;45.90;;;;;;4865361;29;20134;-61
2022/08/02 09:26:21;;;;;;;2.67;0.60;;;27.50;46.00;;;;;;4866736;29;20128;-63
2022/08/02 09:28:50;;;;;;;1.55;0.60;;;27.60;44.00;;;;;;4863161;29;20101;-62
2022/08/02 09:31:19;;;;;;;1.42;0.60;;;27.80;44.10;;;;;;4864771;29;20147;-63
2022/08/02 09:33:50;;;;;;;0.88;0.60;;;27.80;42.80;;;;;;4875764;29;20575;-62
2022/08/02 09:36:19;;;;;;;1.80;0.60;;;27.90;43.00;;;;;;4876198;29;20080;-62
2022/08/02 09:38:54;;;;;;;1.50;0.52;;;27.90;43.20;;;;;;4873174;29;20052;-62
2022/08/02 09:41:23;;;;;;;2.50;0.70;;;28.00;42.30;;;;;;4874851;29;20049;-62
2022/08/02 09:43:50;;;;;;;;;;;28.10;43.10;;;;;;4877668;29;20503;-62
2022/08/02 09:46:19;;;;;;;1.70;0.77;;;28.10;42.70;;;;;;4868297;29;19940;-62
2022/08/02 09:48:47;;;;;;;;;;;28.20;43.10;;;;;;4872376;29;20411;-63
2022/08/02 09:51:19;;;;;;;2.83;0.88;;;28.30;41.20;;;;;;4866047;29;19927;-61
2022/08/02 09:53:50;;;;;;;1.40;0.60;;;28.30;41.30;;;;;;4874885;29;20045;-61
2022/08/02 09:56:18;;;;;;;1.25;0.50;;;28.40;41.10;;;;;;4875365;29;20065;-62
2022/08/02 09:58:45;;;;;;;1.02;0.60;;;28.50;41.30;;;;;;4865986;29;20041;-63
2022/08/02 10:01:12;;;;;;;1.95;0.85;;;28.50;41.90;;;;;;4865958;29;20049;-60
2022/08/02 10:03:54;;;;;;;1.58;0.80;;;28.60;41.50;;;;;;4865995;29;20551;-61
2022/08/02 10:06:23;;;;;;;1.70;1.10;;;28.60;41.80;;;;;;4866040;29;20049;-62
2022/08/02 10:08:52;;;;;;;2.35;1.15;;;28.70;41.80;;;;;;4870402;29;20124;-63
2022/08/02 10:11:20;;;;;;;1.20;0.63;;;28.80;40.80;;;;;;4871944;29;20133;-62
2022/08/02 10:13:48;;;;;;;2.90;0.88;;;28.90;40.20;;;;;;4870322;29;20055;-62
2022/08/02 10:16:16;;;;;;;0.85;0.40;;;29.10;38.90;;;;;;4873314;29;20041;-61
2022/08/02 10:18:44;;;;;;;1.20;0.70;;;29.10;39.40;;;;;;4875431;29;20532;-62
2022/08/02 10:21:14;;;;;;;1.60;0.77;;;29.10;38.90;;;;;;4879448;29;20071;-63
2022/08/02 10:23:45;;;;;;;2.35;0.70;;;29.10;38.80;;;;;;4877998;29;20140;-62
2022/08/02 10:26:17;;;;;;;0.90;0.45;;;29.20;39.20;;;;;;4871920;29;20495;-62
2022/08/02 10:28:48;;;;;;;1.10;0.68;;;29.20;39.10;;;;;;4873107;29;20144;-62
2022/08/02 10:31:19;;;;;;;3.78;1.10;;;29.30;39.50;;;;;;4872081;29;20046;-62
2022/08/02 10:33:49;;;;;;;1.98;0.80;;;29.30;40.00;;;;;;4877586;29;20149;-64
2022/08/02 10:36:18;;;;;;;1.67;0.75;;;29.30;39.70;;;;;;4875656;29;20127;-64
2022/08/02 10:38:47;;;;;;;2.40;1.10;;;29.40;39.70;;;;;;4874970;29;20515;-61
2022/08/02 10:41:14;;;;;;;2.45;0.95;;;29.50;39.70;;;;;;4875626;29;20041;-62
2022/08/02 10:43:44;;;;;;;1.77;0.70;;;29.50;39.50;;;;;;4881316;29;20058;-63
2022/08/02 10:46:38;;;;;;;2.40;1.08;;;29.60;39.70;;;;;;4873465;29;20418;-62
2022/08/02 10:49:09;;;;;;;2.78;1.17;;;29.60;39.10;;;;;;4875990;29;20041;-62
2022/08/02 10:51:57;;;;;;;1.83;0.90;;;29.70;38.70;;;;;;4875017;29;20411;-63
2022/08/02 10:54:26;;;;;;;;;;;29.80;38.10;;;;;;4874795;29;20809;-62
2022/08/02 10:56:55;;;;;;;1.90;0.50;;;29.80;37.60;;;;;;4875700;29;19923;-61
2022/08/02 10:59:27;;;;;;;1.08;0.63;;;29.90;37.30;;;;;;4879049;29;20078;-62
2022/08/02 11:02:00;;;;;;;3.38;0.98;;;30.00;38.00;;;;;;4870557;29;20154;-61
2022/08/02 11:04:33;;;;;;;1.40;0.80;;;29.90;38.50;;;;;;4876137;29;20057;-62
2022/08/02 11:07:10;;;;;;;2.20;0.98;;;30.00;38.10;;;;;;4876841;29;20407;-62
2022/08/02 11:09:39;;;;;;;1.05;0.73;;;30.00;37.00;;;;;;4874972;29;20067;-62
2022/08/02 11:12:07;;;;;;;3.65;1.00;;;30.10;36.20;;;;;;4871981;29;20065;-61
2022/08/02 11:14:35;;;;;;;;;;;30.10;35.70;;;;;;4873884;29;20053;-61
2022/08/02 11:17:13;;;;;;;0.82;0.60;;;30.10;35.70;;;;;;4870636;29;19931;-63
2022/08/02 11:20:15;;;;;;;1.10;0.50;;;30.10;36.40;;;;;;4879719;29;20072;-63
2022/08/02 11:22:43;;;;;;;1.65;0.70;;;30.20;36.50;;;;;;4804482;29;20103;-62
2022/08/02 11:25:37;;;;;;;1.15;0.65;;;30.30;35.50;;;;;;4855695;29;20076;-62
2022/08/02 11:28:10;;;;;;;1.10;0.80;;;30.30;35.70;;;;;;4874188;29;20476;-62
2022/08/02 11:30:38;;;;;;;3.75;0.75;;;30.30;36.60;;;;;;4870431;29;20130;-62
2022/08/02 11:33:05;;;;;;;1.73;0.60;;;30.30;36.20;;;;;;4867837;29;20381;-60
2022/08/02 11:35:35;;;;;;;1.38;0.50;;;30.30;34.60;;;;;;4868522;29;20088;-61
2022/08/02 11:38:17;;;;;;;1.15;0.63;;;30.20;35.60;;;;;;4878414;29;20119;-63
2022/08/02 11:40:47;;;;;;;1.25;0.70;;;30.30;35.70;;;;;;4873748;29;20049;-61
2022/08/02 11:43:19;;;;;;;1.00;0.60;;;30.30;35.90;;;;;;4873870;29;20041;-62
2022/08/02 11:45:46;;;;;;;1.13;0.60;;;30.30;36.30;;;;;;4875952;29;20045;-61
2022/08/02 11:48:13;;;;;;;2.35;0.60;;;30.40;35.80;;;;;;4872877;29;20418;-62
2022/08/02 11:50:40;;;;;;;1.50;0.60;;;30.50;35.80;;;;;;4869080;29;20052;-61
2022/08/02 11:53:15;;;;;;;1.02;0.50;;;30.50;35.90;;;;;;4873559;29;20041;-62
2022/08/02 11:55:42;;;;;;;1.00;0.68;;;30.60;35.70;;;;;;4871858;29;20051;-62
2022/08/02 11:58:11;;;;;;;0.90;0.60;;;30.60;36.00;;;;;;4875089;29;20041;-61
2022/08/02 12:00:39;;;;;;;1.23;0.63;;;30.60;35.10;;;;;;4872161;29;20045;-61
2022/08/02 12:03:07;;;;;;;1.60;0.90;;;30.60;35.10;;;;;;4875477;29;20472;-62
2022/08/02 12:05:34;;;;;;;1.27;0.65;;;30.60;34.90;;;;;;4876259;29;20060;-61
2022/08/02 12:08:05;;;;;;;1.00;0.60;;;30.50;35.30;;;;;;4871418;29;20079;-62
2022/08/02 12:10:32;;;;;;;1.42;0.60;;;30.60;35.30;;;;;;4873432;29;20116;-62
2022/08/02 12:13:00;;;;;;;1.55;0.60;;;30.50;35.70;;;;;;4877485;29;20121;-63
2022/08/02 12:15:39;;;;;;;1.05;0.60;;;30.60;35.20;;;;;;4873990;29;20137;-62
2022/08/02 12:20:54;;;;;;;1.20;0.60;;;30.60;36.20;;;;;;4878155;29;20053;-63
2022/08/02 12:23:21;;;;;;;1.30;0.60;;;30.50;36.50;;;;;;4873050;29;20053;-62
2022/08/02 12:26:00;;;;;;;1.48;0.80;;;30.50;36.60;;;;;;4870405;29;20540;-62
2022/08/02 12:28:28;;;;;;;1.15;0.60;;;30.50;34.70;;;;;;4872109;29;20067;-61
2022/08/02 12:30:58;;;;;;;0.60;0.50;;;30.50;34.70;;;;;;4867720;29;20045;-62
2022/08/02 12:33:27;;;;;;;1.25;0.70;;;30.60;34.70;;;;;;4869987;29;20057;-62
2022/08/02 12:35:55;;;;;;;2.67;0.70;;;30.60;34.40;;;;;;4877488;29;20403;-61
2022/08/02 12:38:22;;;;;;;1.05;0.60;;;30.50;35.50;;;;;;4864852;29;20055;-62
2022/08/02 12:40:49;;;;;;;1.10;0.55;;;30.40;34.90;;;;;;4874431;29;20488;-61
2022/08/02 12:43:18;;;;;;;2.45;0.75;;;30.50;35.50;;;;;;4871172;29;20045;-61
2022/08/02 12:45:47;;;;;;;1.33;0.75;;;30.40;35.30;;;;;;4873565;29;20522;-63
2022/08/02 12:48:16;;;;;;;;;;;30.40;36.20;;;;;;4874812;29;20114;-61
2022/08/02 12:50:43;;;;;;;1.38;0.60;;;30.30;36.50;;;;;;4872535;29;20046;-62
2022/08/02 12:53:15;;;;;;;1.67;0.68;;;30.30;36.10;;;;;;4874747;29;20049;-62
2022/08/02 12:55:50;;;;;;;1.38;0.70;;;30.20;36.50;;;;;;4870898;29;20045;-62
2022/08/02 12:58:18;;;;;;;1.13;0.60;;;30.30;35.50;;;;;;4877688;29;20053;-62
2022/08/02 13:00:53;;;;;;;1.27;0.70;;;30.10;36.00;;;;;;4868332;29;20049;-62
2022/08/02 13:03:22;;;;;;;1.25;0.70;;;30.20;35.50;;;;;;4870681;29;20491;-64
2022/08/02 13:05:50;;;;;;;0.98;0.60;;;30.20;35.40;;;;;;4876602;29;20119;-63